createdAt,value
2022-10-06T00:00:06.440Z,502.67
2022-10-06T00:00:16.442Z,502.63
2022-10-06T00:00:26.441Z,502.53
2022-10-06T00:00:36.444Z,502.72
2022-10-06T00:00:46.449Z,502.72
2022-10-06T00:00:56.448Z,502.67
2022-10-06T00:01:06.507Z,502.48
2022-10-06T00:01:16.618Z,502.87
2022-10-06T00:01:26.531Z,502.79
2022-10-06T00:01:36.483Z,502.75
2022-10-06T00:01:46.501Z,502.87
2022-10-06T00:01:56.449Z,502.57
2022-10-06T00:02:06.454Z,502.60
2022-10-06T00:02:16.499Z,502.82
2022-10-06T00:02:26.502Z,502.80
2022-10-06T00:02:36.531Z,502.52
2022-10-06T00:02:46.517Z,502.44
2022-10-06T00:02:56.478Z,502.37
2022-10-06T00:03:06.458Z,502.39
2022-10-06T00:03:16.456Z,502.25
2022-10-06T00:03:26.475Z,502.66
2022-10-06T00:03:36.472Z,502.67
2022-10-06T00:03:46.456Z,502.31
2022-10-06T00:03:56.442Z,502.87
2022-10-06T00:04:06.459Z,502.63
2022-10-06T00:04:16.460Z,502.35
2022-10-06T00:04:26.463Z,502.19
2022-10-06T00:04:36.459Z,502.54
2022-10-06T00:04:46.444Z,502.75
2022-10-06T00:04:56.464Z,502.84
2022-10-06T00:05:06.466Z,502.59
2022-10-06T00:05:16.464Z,502.54
2022-10-06T00:05:26.465Z,502.69
2022-10-06T00:05:36.465Z,502.60
2022-10-06T00:05:46.451Z,502.37
2022-10-06T00:05:56.469Z,502.33
2022-10-06T00:06:06.468Z,502.17
2022-10-06T00:06:16.470Z,502.09
2022-10-06T00:06:26.481Z,502.18
2022-10-06T00:06:36.471Z,501.99
2022-10-06T00:06:46.472Z,502.14
2022-10-06T00:06:56.470Z,502.12
2022-10-06T00:07:06.480Z,502.12
2022-10-06T00:07:16.473Z,502.04
2022-10-06T00:07:26.473Z,502.18
2022-10-06T00:07:36.477Z,502.17
2022-10-06T00:07:46.478Z,502.27
2022-10-06T00:07:56.478Z,502.06
2022-10-06T00:08:09.980Z,502.07
2022-10-06T00:08:16.479Z,502.07
2022-10-06T00:08:26.953Z,502.05
2022-10-06T00:08:36.481Z,502.09
2022-10-06T00:08:46.480Z,502.32
2022-10-06T00:08:56.483Z,502.16
2022-10-06T00:09:06.483Z,502.08
2022-10-06T00:09:16.485Z,502.19
2022-10-06T00:09:26.491Z,502.02
2022-10-06T00:09:36.487Z,501.86
2022-10-06T00:09:46.488Z,501.77
2022-10-06T00:09:56.493Z,501.94
2022-10-06T00:10:06.490Z,502.02
2022-10-06T00:10:16.489Z,501.73
2022-10-06T00:10:26.499Z,501.57
2022-10-06T00:10:36.493Z,501.63
2022-10-06T00:10:46.493Z,501.64
2022-10-06T00:10:56.508Z,501.29
2022-10-06T00:11:06.497Z,501.72
2022-10-06T00:11:16.498Z,501.61
2022-10-06T00:11:26.497Z,501.67
2022-10-06T00:11:36.500Z,501.79
2022-10-06T00:11:46.500Z,501.66
2022-10-06T00:11:56.501Z,501.36
2022-10-06T00:12:06.514Z,501.41
2022-10-06T00:12:16.503Z,501.40
2022-10-06T00:12:26.506Z,501.56
2022-10-06T00:12:36.505Z,501.60
2022-10-06T00:12:46.511Z,501.37
2022-10-06T00:12:56.506Z,501.55
2022-10-06T00:13:06.506Z,501.69
2022-10-06T00:13:16.507Z,501.51
2022-10-06T00:13:26.533Z,501.48
2022-10-06T00:13:36.513Z,501.47
2022-10-06T00:13:46.510Z,501.48
2022-10-06T00:13:56.511Z,501.46
2022-10-06T00:14:06.514Z,501.41
2022-10-06T00:14:16.514Z,501.35
2022-10-06T00:14:26.560Z,501.55
2022-10-06T00:14:36.498Z,501.51
2022-10-06T00:14:46.517Z,501.53
2022-10-06T00:14:56.534Z,501.53
2022-10-06T00:15:06.518Z,501.50
2022-10-06T00:15:16.519Z,501.60
2022-10-06T00:15:26.692Z,501.62
2022-10-06T00:15:36.572Z,501.71
2022-10-06T00:15:46.610Z,501.50
2022-10-06T00:15:56.585Z,501.27
2022-10-06T00:16:06.551Z,501.27
2022-10-06T00:16:16.609Z,501.35
2022-10-06T00:16:26.543Z,501.55
2022-10-06T00:16:36.526Z,501.49
2022-10-06T00:16:46.507Z,501.55
2022-10-06T00:16:56.545Z,501.19
2022-10-06T00:17:06.531Z,501.30
2022-10-06T00:17:16.533Z,501.04
2022-10-06T00:17:26.540Z,501.24
2022-10-06T00:17:36.529Z,501.35
2022-10-06T00:17:46.535Z,501.56
2022-10-06T00:17:56.544Z,501.38
2022-10-06T00:18:06.533Z,501.38
2022-10-06T00:18:16.514Z,501.55
2022-10-06T00:18:26.929Z,501.26
2022-10-06T00:18:36.532Z,501.19
2022-10-06T00:18:46.537Z,501.17
2022-10-06T00:18:56.538Z,501.16
2022-10-06T00:19:06.536Z,501.17
2022-10-06T00:19:16.542Z,501.38
2022-10-06T00:19:26.548Z,501.35
2022-10-06T00:19:36.536Z,501.23
2022-10-06T00:19:46.537Z,501.41
2022-10-06T00:19:56.550Z,501.93
2022-10-06T00:20:06.538Z,501.71
2022-10-06T00:20:16.543Z,501.43
2022-10-06T00:20:26.559Z,501.62
2022-10-06T00:20:36.540Z,501.72
2022-10-06T00:20:46.543Z,501.82
2022-10-06T00:20:56.555Z,501.73
2022-10-06T00:21:06.544Z,501.78
2022-10-06T00:21:16.551Z,501.47
2022-10-06T00:21:26.558Z,501.52
2022-10-06T00:21:36.549Z,501.38
2022-10-06T00:21:46.558Z,501.12
2022-10-06T00:21:56.573Z,501.13
2022-10-06T00:22:06.551Z,501.39
2022-10-06T00:22:16.533Z,501.51
2022-10-06T00:22:26.562Z,501.38
2022-10-06T00:22:36.534Z,501.23
2022-10-06T00:22:46.554Z,501.12
2022-10-06T00:22:56.578Z,501.32
2022-10-06T00:23:06.552Z,501.74
2022-10-06T00:23:16.553Z,501.62
2022-10-06T00:23:26.582Z,501.48
2022-10-06T00:23:36.555Z,501.51
2022-10-06T00:23:46.558Z,501.48
2022-10-06T00:23:56.585Z,501.68
2022-10-06T00:24:06.565Z,501.59
2022-10-06T00:24:16.560Z,501.69
2022-10-06T00:24:26.593Z,501.52
2022-10-06T00:24:36.561Z,501.56
2022-10-06T00:24:46.562Z,501.43
2022-10-06T00:24:56.548Z,501.16
2022-10-06T00:25:06.565Z,501.29
2022-10-06T00:25:16.567Z,501.22
2022-10-06T00:25:26.575Z,501.44
2022-10-06T00:25:36.565Z,501.58
2022-10-06T00:25:46.568Z,501.60
2022-10-06T00:25:56.585Z,501.57
2022-10-06T00:26:06.567Z,501.59
2022-10-06T00:26:17.024Z,501.44
2022-10-06T00:26:26.584Z,501.73
2022-10-06T00:26:36.569Z,501.77
2022-10-06T00:26:46.571Z,501.59
2022-10-06T00:26:56.580Z,501.53
2022-10-06T00:27:06.572Z,501.34
2022-10-06T00:27:16.572Z,501.36
2022-10-06T00:27:26.573Z,501.16
2022-10-06T00:27:36.573Z,501.35
2022-10-06T00:27:46.555Z,501.43
2022-10-06T00:27:56.711Z,501.59
2022-10-06T00:28:06.622Z,501.63
2022-10-06T00:28:16.606Z,501.49
2022-10-06T00:28:27.286Z,501.50
2022-10-06T00:28:36.640Z,501.84
2022-10-06T00:28:46.611Z,501.47
2022-10-06T00:28:56.581Z,501.19
2022-10-06T00:29:06.581Z,501.54
2022-10-06T00:29:16.560Z,501.16
2022-10-06T00:29:26.591Z,501.30
2022-10-06T00:29:36.582Z,501.65
2022-10-06T00:29:46.582Z,501.46
2022-10-06T00:29:56.588Z,501.39
2022-10-06T00:30:06.582Z,501.18
2022-10-06T00:30:16.590Z,501.29
2022-10-06T00:30:26.589Z,501.27
2022-10-06T00:30:36.582Z,501.37
2022-10-06T00:30:46.644Z,501.73
2022-10-06T00:30:56.775Z,501.62
2022-10-06T00:31:06.622Z,501.62
2022-10-06T00:31:16.656Z,501.60
2022-10-06T00:31:26.660Z,501.54
2022-10-06T00:31:36.588Z,501.38
2022-10-06T00:31:46.588Z,501.46
2022-10-06T00:31:56.615Z,501.37
2022-10-06T00:32:06.593Z,501.29
2022-10-06T00:32:16.594Z,501.64
2022-10-06T00:32:26.610Z,501.25
2022-10-06T00:32:36.596Z,501.46
2022-10-06T00:32:46.594Z,501.66
2022-10-06T00:32:56.618Z,501.60
2022-10-06T00:33:06.597Z,501.61
2022-10-06T00:33:16.600Z,501.59
2022-10-06T00:33:26.615Z,501.53
2022-10-06T00:33:36.603Z,501.17
2022-10-06T00:33:46.600Z,501.51
2022-10-06T00:33:56.605Z,501.32
2022-10-06T00:34:06.631Z,501.28
2022-10-06T00:34:16.602Z,501.30
2022-10-06T00:34:26.605Z,501.53
2022-10-06T00:34:36.603Z,501.61
2022-10-06T00:34:46.603Z,501.43
2022-10-06T00:34:56.605Z,501.23
2022-10-06T00:35:06.606Z,501.29
2022-10-06T00:35:16.615Z,501.62
2022-10-06T00:35:26.613Z,501.63
2022-10-06T00:35:36.607Z,501.68
2022-10-06T00:35:46.607Z,501.53
2022-10-06T00:35:56.630Z,501.23
2022-10-06T00:36:06.609Z,501.65
2022-10-06T00:36:16.609Z,501.53
2022-10-06T00:36:26.626Z,501.24
2022-10-06T00:36:36.610Z,501.36
2022-10-06T00:36:46.613Z,501.62
2022-10-06T00:36:56.613Z,501.49
2022-10-06T00:37:06.611Z,501.49
2022-10-06T00:37:16.614Z,501.34
2022-10-06T00:37:26.624Z,501.49
2022-10-06T00:37:36.623Z,501.77
2022-10-06T00:37:46.618Z,501.61
2022-10-06T00:37:56.617Z,501.57
2022-10-06T00:38:06.638Z,501.33
2022-10-06T00:38:16.618Z,501.13
2022-10-06T00:38:27.269Z,501.22
2022-10-06T00:38:36.625Z,501.59
2022-10-06T00:38:46.624Z,501.67
2022-10-06T00:38:56.647Z,501.39
2022-10-06T00:39:06.622Z,501.27
2022-10-06T00:39:16.621Z,500.95
2022-10-06T00:39:26.627Z,501.14
2022-10-06T00:39:36.628Z,501.45
2022-10-06T00:39:46.628Z,501.40
2022-10-06T00:39:56.628Z,501.25
2022-10-06T00:40:06.630Z,501.26
2022-10-06T00:40:16.638Z,501.17
2022-10-06T00:40:26.630Z,501.28
2022-10-06T00:40:36.613Z,501.27
2022-10-06T00:40:46.633Z,501.21
2022-10-06T00:40:56.640Z,501.29
2022-10-06T00:41:06.634Z,501.85
2022-10-06T00:41:16.657Z,501.62
2022-10-06T00:41:26.639Z,501.54
2022-10-06T00:41:36.635Z,501.94
2022-10-06T00:41:46.636Z,502.00
2022-10-06T00:41:56.642Z,501.92
2022-10-06T00:42:06.664Z,501.66
2022-10-06T00:42:16.640Z,501.52
2022-10-06T00:42:26.650Z,501.47
2022-10-06T00:42:36.642Z,501.49
2022-10-06T00:42:46.641Z,501.43
2022-10-06T00:42:56.657Z,501.26
2022-10-06T00:43:06.646Z,501.35
2022-10-06T00:43:16.643Z,501.37
2022-10-06T00:43:26.646Z,501.42
2022-10-06T00:43:36.648Z,501.20
2022-10-06T00:43:46.648Z,501.22
2022-10-06T00:43:56.652Z,501.24
2022-10-06T00:44:06.649Z,501.26
2022-10-06T00:44:16.649Z,501.19
2022-10-06T00:44:26.653Z,501.24
2022-10-06T00:44:36.633Z,501.40
2022-10-06T00:44:46.654Z,501.22
2022-10-06T00:44:56.650Z,501.37
2022-10-06T00:45:06.655Z,501.36
2022-10-06T00:45:16.657Z,501.54
2022-10-06T00:45:26.656Z,501.61
2022-10-06T00:45:36.659Z,501.56
2022-10-06T00:45:46.660Z,501.79
2022-10-06T00:45:56.755Z,501.60
2022-10-06T00:46:06.722Z,501.53
2022-10-06T00:46:16.709Z,501.48
2022-10-06T00:46:26.754Z,501.44
2022-10-06T00:46:36.754Z,501.51
2022-10-06T00:46:46.709Z,501.29
2022-10-06T00:46:56.670Z,501.82
2022-10-06T00:47:06.669Z,501.75
2022-10-06T00:47:16.668Z,501.70
2022-10-06T00:47:26.671Z,501.19
2022-10-06T00:47:36.651Z,501.48
2022-10-06T00:47:46.670Z,501.46
2022-10-06T00:47:56.670Z,501.41
2022-10-06T00:48:06.671Z,501.27
2022-10-06T00:48:16.675Z,501.60
2022-10-06T00:48:27.098Z,501.64
2022-10-06T00:48:36.675Z,501.66
2022-10-06T00:48:46.678Z,501.68
2022-10-06T00:48:56.676Z,501.63
2022-10-06T00:49:06.679Z,501.67
2022-10-06T00:49:16.675Z,501.76
2022-10-06T00:49:26.679Z,502.01
2022-10-06T00:49:36.682Z,502.28
2022-10-06T00:49:46.677Z,502.17
2022-10-06T00:49:56.679Z,502.10
2022-10-06T00:50:06.678Z,502.01
2022-10-06T00:50:16.681Z,501.96
2022-10-06T00:50:26.680Z,501.89
2022-10-06T00:50:36.681Z,501.92
2022-10-06T00:50:46.683Z,501.97
2022-10-06T00:50:56.693Z,501.67
2022-10-06T00:51:06.682Z,501.90
2022-10-06T00:51:16.685Z,501.68
2022-10-06T00:51:26.685Z,501.79
2022-10-06T00:51:36.686Z,501.38
2022-10-06T00:51:46.690Z,501.52
2022-10-06T00:51:56.687Z,501.58
2022-10-06T00:52:06.697Z,501.91
2022-10-06T00:52:16.692Z,501.82
2022-10-06T00:52:26.692Z,501.77
2022-10-06T00:52:36.693Z,501.56
2022-10-06T00:52:46.693Z,501.68
2022-10-06T00:52:56.698Z,501.52
2022-10-06T00:53:06.694Z,501.74
2022-10-06T00:53:16.697Z,501.74
2022-10-06T00:53:26.698Z,501.46
2022-10-06T00:53:36.697Z,501.37
2022-10-06T00:53:46.701Z,501.38
2022-10-06T00:53:56.681Z,501.68
2022-10-06T00:54:06.702Z,501.81
2022-10-06T00:54:16.704Z,501.46
2022-10-06T00:54:26.702Z,501.56
2022-10-06T00:54:36.711Z,501.41
2022-10-06T00:54:46.687Z,501.38
2022-10-06T00:54:56.710Z,501.19
2022-10-06T00:55:06.706Z,501.28
2022-10-06T00:55:16.711Z,501.89
2022-10-06T00:55:26.708Z,501.60
2022-10-06T00:55:36.715Z,501.36
2022-10-06T00:55:46.712Z,501.65
2022-10-06T00:55:56.715Z,501.87
2022-10-06T00:56:06.715Z,501.90
2022-10-06T00:56:16.716Z,501.40
2022-10-06T00:56:26.735Z,501.69
2022-10-06T00:56:36.719Z,501.71
2022-10-06T00:56:46.715Z,501.59
2022-10-06T00:56:56.722Z,501.50
2022-10-06T00:57:06.722Z,501.47
2022-10-06T00:57:16.719Z,501.29
2022-10-06T00:57:26.720Z,501.40
2022-10-06T00:57:36.723Z,501.50
2022-10-06T00:57:46.721Z,501.39
2022-10-06T00:57:56.721Z,501.36
2022-10-06T00:58:06.727Z,501.40
2022-10-06T00:58:16.723Z,501.54
2022-10-06T00:58:27.191Z,501.53
2022-10-06T00:58:36.726Z,501.31
2022-10-06T00:58:46.727Z,501.33
2022-10-06T00:58:56.730Z,501.28
2022-10-06T00:59:06.729Z,501.34
2022-10-06T00:59:16.728Z,501.19
2022-10-06T00:59:26.728Z,501.11
2022-10-06T00:59:36.710Z,501.40
2022-10-06T00:59:46.731Z,501.10
2022-10-06T00:59:56.733Z,500.92
2022-10-06T01:00:06.734Z,500.81
2022-10-06T01:00:16.739Z,500.85
2022-10-06T01:00:26.736Z,500.86
2022-10-06T01:00:36.736Z,500.66
2022-10-06T01:00:46.738Z,500.42
2022-10-06T01:00:56.750Z,500.76
2022-10-06T01:01:06.773Z,501.00
2022-10-06T01:01:16.787Z,500.78
2022-10-06T01:01:26.778Z,500.61
2022-10-06T01:01:36.769Z,500.61
2022-10-06T01:01:46.777Z,500.43
2022-10-06T01:01:56.810Z,500.48
2022-10-06T01:02:06.758Z,500.56
2022-10-06T01:02:16.818Z,500.79
2022-10-06T01:02:26.819Z,500.62
2022-10-06T01:02:36.795Z,500.67
2022-10-06T01:02:46.903Z,500.75
2022-10-06T01:02:56.845Z,500.92
2022-10-06T01:03:06.826Z,500.88
2022-10-06T01:03:16.749Z,500.79
2022-10-06T01:03:26.747Z,500.62
2022-10-06T01:03:36.750Z,500.45
2022-10-06T01:03:46.751Z,500.66
2022-10-06T01:03:56.758Z,500.38
2022-10-06T01:04:06.757Z,500.44
2022-10-06T01:04:16.752Z,500.30
2022-10-06T01:04:26.756Z,500.29
2022-10-06T01:04:36.755Z,500.17
2022-10-06T01:04:46.756Z,500.05
2022-10-06T01:04:56.757Z,500.03
2022-10-06T01:05:06.758Z,500.44
2022-10-06T01:05:16.760Z,500.62
2022-10-06T01:05:26.758Z,500.68
2022-10-06T01:05:36.768Z,500.47
2022-10-06T01:05:46.764Z,500.37
2022-10-06T01:05:56.761Z,500.50
2022-10-06T01:06:06.761Z,500.62
2022-10-06T01:06:16.768Z,500.83
2022-10-06T01:06:26.765Z,500.67
2022-10-06T01:06:36.764Z,500.44
2022-10-06T01:06:46.765Z,500.30
2022-10-06T01:06:56.765Z,500.10
2022-10-06T01:07:06.771Z,500.05
2022-10-06T01:07:16.767Z,500.02
2022-10-06T01:07:26.771Z,500.04
2022-10-06T01:07:36.770Z,499.99
2022-10-06T01:07:46.774Z,499.97
2022-10-06T01:07:56.773Z,499.92
2022-10-06T01:08:06.770Z,499.94
2022-10-06T01:08:16.771Z,499.70
2022-10-06T01:08:27.311Z,499.76
2022-10-06T01:08:36.775Z,499.78
2022-10-06T01:08:46.774Z,499.76
2022-10-06T01:08:56.775Z,499.85
2022-10-06T01:09:06.776Z,499.92
2022-10-06T01:09:16.781Z,499.91
2022-10-06T01:09:26.779Z,499.96
2022-10-06T01:09:36.761Z,499.94
2022-10-06T01:09:46.781Z,499.82
2022-10-06T01:09:56.791Z,499.77
2022-10-06T01:10:06.784Z,499.93
2022-10-06T01:10:16.784Z,499.90
2022-10-06T01:10:26.787Z,499.91
2022-10-06T01:10:36.787Z,499.79
2022-10-06T01:10:46.787Z,499.63
2022-10-06T01:10:56.793Z,499.74
2022-10-06T01:11:06.787Z,499.74
2022-10-06T01:11:16.789Z,499.71
2022-10-06T01:11:26.790Z,499.62
2022-10-06T01:11:36.793Z,499.89
2022-10-06T01:11:46.792Z,499.97
2022-10-06T01:11:56.792Z,499.83
2022-10-06T01:12:06.807Z,499.79
2022-10-06T01:12:16.792Z,499.82
2022-10-06T01:12:26.793Z,499.73
2022-10-06T01:12:36.796Z,499.52
2022-10-06T01:12:46.795Z,499.88
2022-10-06T01:12:56.801Z,500.00
2022-10-06T01:13:06.797Z,499.64
2022-10-06T01:13:16.803Z,499.28
2022-10-06T01:13:26.799Z,499.22
2022-10-06T01:13:36.802Z,499.37
2022-10-06T01:13:46.803Z,499.40
2022-10-06T01:13:56.806Z,499.15
2022-10-06T01:14:06.802Z,499.11
2022-10-06T01:14:16.805Z,499.03
2022-10-06T01:14:26.805Z,498.80
2022-10-06T01:14:36.807Z,498.76
2022-10-06T01:14:46.809Z,499.18
2022-10-06T01:14:56.808Z,499.54
2022-10-06T01:15:06.810Z,499.41
2022-10-06T01:15:16.811Z,499.49
2022-10-06T01:15:26.809Z,499.09
2022-10-06T01:15:36.867Z,498.56
2022-10-06T01:15:46.858Z,498.51
2022-10-06T01:15:56.871Z,498.69
2022-10-06T01:16:06.880Z,498.83
2022-10-06T01:16:16.912Z,499.10
2022-10-06T01:16:26.830Z,498.88
2022-10-06T01:16:36.815Z,498.67
2022-10-06T01:16:46.818Z,498.78
2022-10-06T01:16:56.815Z,498.32
2022-10-06T01:17:06.817Z,498.15
2022-10-06T01:17:16.820Z,498.19
2022-10-06T01:17:26.818Z,498.07
2022-10-06T01:17:36.819Z,497.77
2022-10-06T01:17:46.818Z,497.51
2022-10-06T01:17:56.824Z,497.37
2022-10-06T01:18:06.819Z,497.49
2022-10-06T01:18:16.820Z,498.03
2022-10-06T01:18:27.322Z,498.38
2022-10-06T01:18:36.821Z,498.26
2022-10-06T01:18:46.823Z,498.12
2022-10-06T01:18:56.821Z,497.91
2022-10-06T01:19:06.824Z,497.81
2022-10-06T01:19:16.824Z,497.77
2022-10-06T01:19:26.823Z,497.60
2022-10-06T01:19:36.908Z,497.55
2022-10-06T01:19:46.823Z,497.42
2022-10-06T01:19:56.831Z,497.49
2022-10-06T01:20:06.827Z,497.53
2022-10-06T01:20:16.830Z,497.60
2022-10-06T01:20:26.828Z,497.48
2022-10-06T01:20:36.831Z,497.25
2022-10-06T01:20:46.829Z,497.64
2022-10-06T01:20:56.830Z,497.87
2022-10-06T01:21:06.832Z,497.72
2022-10-06T01:21:16.830Z,497.54
2022-10-06T01:21:26.830Z,497.01
2022-10-06T01:21:36.831Z,496.78
2022-10-06T01:21:46.830Z,496.59
2022-10-06T01:21:56.831Z,496.59
2022-10-06T01:22:06.816Z,496.59
2022-10-06T01:22:16.840Z,496.86
2022-10-06T01:22:26.834Z,496.98
2022-10-06T01:22:36.836Z,496.96
2022-10-06T01:22:46.834Z,497.03
2022-10-06T01:22:56.837Z,497.15
2022-10-06T01:23:06.864Z,496.29
2022-10-06T01:23:16.836Z,496.14
2022-10-06T01:23:26.837Z,495.82
2022-10-06T01:23:36.837Z,495.57
2022-10-06T01:23:46.836Z,496.41
2022-10-06T01:23:56.841Z,496.60
2022-10-06T01:24:06.837Z,496.32
2022-10-06T01:24:16.839Z,496.09
2022-10-06T01:24:26.849Z,495.73
2022-10-06T01:24:36.842Z,495.86
2022-10-06T01:24:46.843Z,496.23
2022-10-06T01:24:56.847Z,495.75
2022-10-06T01:25:06.843Z,495.71
2022-10-06T01:25:16.844Z,495.62
2022-10-06T01:25:26.846Z,495.66
2022-10-06T01:25:36.847Z,495.71
2022-10-06T01:25:46.863Z,495.66
2022-10-06T01:25:56.848Z,495.27
2022-10-06T01:26:06.850Z,494.96
2022-10-06T01:26:16.856Z,494.95
2022-10-06T01:26:26.853Z,495.30
2022-10-06T01:26:36.850Z,495.27
2022-10-06T01:26:46.853Z,494.98
2022-10-06T01:26:56.852Z,495.26
2022-10-06T01:27:06.857Z,495.07
2022-10-06T01:27:16.857Z,494.94
2022-10-06T01:27:26.839Z,494.96
2022-10-06T01:27:36.857Z,494.89
2022-10-06T01:27:46.862Z,495.01
2022-10-06T01:27:56.888Z,494.86
2022-10-06T01:28:06.905Z,494.91
2022-10-06T01:28:16.913Z,494.94
2022-10-06T01:28:27.633Z,495.41
2022-10-06T01:28:36.914Z,495.44
2022-10-06T01:28:46.904Z,495.28
2022-10-06T01:28:56.869Z,495.16
2022-10-06T01:29:06.868Z,495.28
2022-10-06T01:29:16.865Z,495.10
2022-10-06T01:29:26.866Z,494.97
2022-10-06T01:29:36.867Z,494.97
2022-10-06T01:29:46.901Z,494.78
2022-10-06T01:29:56.868Z,494.47
2022-10-06T01:30:06.871Z,494.55
2022-10-06T01:30:16.869Z,495.05
2022-10-06T01:30:26.888Z,495.20
2022-10-06T01:30:36.871Z,495.51
2022-10-06T01:30:46.923Z,495.22
2022-10-06T01:30:56.935Z,494.69
2022-10-06T01:31:06.910Z,494.58
2022-10-06T01:31:16.904Z,495.00
2022-10-06T01:31:26.965Z,495.05
2022-10-06T01:31:36.954Z,495.00
2022-10-06T01:31:46.878Z,494.87
2022-10-06T01:31:56.878Z,494.50
2022-10-06T01:32:06.881Z,494.35
2022-10-06T01:32:16.883Z,494.38
2022-10-06T01:32:26.885Z,494.46
2022-10-06T01:32:36.879Z,494.50
2022-10-06T01:32:46.883Z,494.68
2022-10-06T01:32:56.882Z,494.94
2022-10-06T01:33:06.881Z,495.00
2022-10-06T01:33:16.885Z,495.06
2022-10-06T01:33:26.884Z,494.57
2022-10-06T01:33:36.884Z,494.56
2022-10-06T01:33:46.920Z,494.72
2022-10-06T01:33:56.887Z,494.85
2022-10-06T01:34:06.894Z,494.55
2022-10-06T01:34:16.891Z,494.48
2022-10-06T01:34:26.889Z,494.72
2022-10-06T01:34:36.872Z,494.72
2022-10-06T01:34:46.890Z,494.71
2022-10-06T01:34:56.890Z,494.54
2022-10-06T01:35:06.891Z,494.33
2022-10-06T01:35:16.892Z,494.50
2022-10-06T01:35:26.892Z,494.92
2022-10-06T01:35:36.893Z,494.60
2022-10-06T01:35:46.894Z,494.93
2022-10-06T01:35:56.893Z,494.52
2022-10-06T01:36:06.896Z,494.20
2022-10-06T01:36:16.901Z,494.30
2022-10-06T01:36:26.894Z,494.36
2022-10-06T01:36:36.897Z,494.28
2022-10-06T01:36:46.898Z,494.28
2022-10-06T01:36:56.898Z,494.37
2022-10-06T01:37:06.905Z,494.28
2022-10-06T01:37:16.899Z,494.25
2022-10-06T01:37:26.915Z,494.16
2022-10-06T01:37:36.900Z,494.32
2022-10-06T01:37:46.962Z,494.17
2022-10-06T01:37:56.902Z,493.87
2022-10-06T01:38:06.904Z,493.76
2022-10-06T01:38:16.904Z,493.79
2022-10-06T01:38:27.573Z,493.35
2022-10-06T01:38:36.904Z,492.93
2022-10-06T01:38:46.903Z,492.99
2022-10-06T01:38:56.908Z,493.31
2022-10-06T01:39:06.910Z,493.40
2022-10-06T01:39:16.905Z,493.67
2022-10-06T01:39:26.909Z,493.66
2022-10-06T01:39:36.908Z,493.51
2022-10-06T01:39:46.909Z,492.96
2022-10-06T01:39:56.917Z,492.80
2022-10-06T01:40:06.911Z,492.76
2022-10-06T01:40:16.912Z,492.88
2022-10-06T01:40:26.913Z,492.64
2022-10-06T01:40:36.913Z,492.33
2022-10-06T01:40:46.915Z,492.36
2022-10-06T01:40:56.915Z,492.13
2022-10-06T01:41:06.916Z,491.64
2022-10-06T01:41:16.916Z,492.30
2022-10-06T01:41:26.924Z,492.02
2022-10-06T01:41:36.918Z,491.98
2022-10-06T01:41:46.921Z,491.90
2022-10-06T01:41:56.918Z,491.70
2022-10-06T01:42:06.936Z,492.10
2022-10-06T01:42:16.919Z,492.39
2022-10-06T01:42:26.920Z,491.91
2022-10-06T01:42:36.921Z,492.02
2022-10-06T01:42:46.923Z,491.90
2022-10-06T01:42:56.927Z,492.01
2022-10-06T01:43:06.928Z,491.93
2022-10-06T01:43:16.923Z,491.73
2022-10-06T01:43:26.922Z,491.32
2022-10-06T01:43:36.925Z,491.22
2022-10-06T01:43:46.924Z,490.92
2022-10-06T01:43:56.928Z,491.27
2022-10-06T01:44:06.928Z,491.62
2022-10-06T01:44:16.930Z,491.92
2022-10-06T01:44:26.927Z,492.00
2022-10-06T01:44:36.930Z,491.81
2022-10-06T01:44:46.939Z,491.62
2022-10-06T01:44:56.932Z,491.78
2022-10-06T01:45:06.932Z,491.96
2022-10-06T01:45:16.932Z,492.00
2022-10-06T01:45:26.933Z,491.80
2022-10-06T01:45:36.933Z,491.74
2022-10-06T01:45:46.935Z,491.56
2022-10-06T01:45:57.100Z,491.85
2022-10-06T01:46:06.957Z,492.19
2022-10-06T01:46:16.959Z,492.21
2022-10-06T01:46:26.965Z,491.86
2022-10-06T01:46:36.947Z,491.32
2022-10-06T01:46:47.028Z,491.92
2022-10-06T01:46:56.941Z,491.55
2022-10-06T01:47:06.946Z,491.29
2022-10-06T01:47:16.941Z,491.22
2022-10-06T01:47:26.947Z,491.32
2022-10-06T01:47:36.942Z,491.22
2022-10-06T01:47:46.945Z,491.33
2022-10-06T01:47:56.945Z,491.14
2022-10-06T01:48:06.946Z,490.80
2022-10-06T01:48:16.947Z,490.80
2022-10-06T01:48:27.477Z,490.58
2022-10-06T01:48:36.956Z,490.39
2022-10-06T01:48:46.949Z,490.61
2022-10-06T01:48:56.952Z,490.49
2022-10-06T01:49:06.953Z,490.17
2022-10-06T01:49:16.950Z,489.78
2022-10-06T01:49:26.952Z,489.77
2022-10-06T01:49:36.957Z,489.48
2022-10-06T01:49:46.952Z,490.09
2022-10-06T01:49:56.953Z,490.32
2022-10-06T01:50:06.953Z,489.61
2022-10-06T01:50:16.951Z,490.09
2022-10-06T01:50:26.954Z,489.44
2022-10-06T01:50:36.957Z,489.94
2022-10-06T01:50:46.938Z,490.32
2022-10-06T01:50:56.961Z,489.59
2022-10-06T01:51:06.957Z,490.00
2022-10-06T01:51:16.957Z,489.98
2022-10-06T01:51:26.959Z,489.24
2022-10-06T01:51:36.959Z,489.03
2022-10-06T01:51:46.960Z,489.12
2022-10-06T01:51:56.959Z,489.14
2022-10-06T01:52:06.973Z,488.89
2022-10-06T01:52:16.965Z,489.00
2022-10-06T01:52:26.963Z,489.05
2022-10-06T01:52:36.966Z,488.98
2022-10-06T01:52:46.966Z,488.69
2022-10-06T01:52:56.965Z,489.12
2022-10-06T01:53:06.967Z,489.47
2022-10-06T01:53:16.969Z,489.14
2022-10-06T01:53:26.971Z,488.92
2022-10-06T01:53:36.969Z,488.93
2022-10-06T01:53:46.971Z,489.05
2022-10-06T01:53:56.971Z,488.72
2022-10-06T01:54:06.973Z,488.46
2022-10-06T01:54:16.977Z,488.43
2022-10-06T01:54:26.976Z,488.14
2022-10-06T01:54:36.975Z,488.24
2022-10-06T01:54:46.978Z,488.08
2022-10-06T01:54:56.974Z,488.02
2022-10-06T01:55:06.976Z,487.88
2022-10-06T01:55:16.977Z,487.94
2022-10-06T01:55:26.977Z,488.11
2022-10-06T01:55:36.982Z,488.24
2022-10-06T01:55:46.982Z,487.92
2022-10-06T01:55:56.985Z,487.62
2022-10-06T01:56:06.983Z,487.74
2022-10-06T01:56:16.984Z,487.58
2022-10-06T01:56:26.985Z,487.57
2022-10-06T01:56:36.986Z,487.36
2022-10-06T01:56:46.987Z,487.27
2022-10-06T01:56:56.988Z,487.14
2022-10-06T01:57:06.990Z,487.30
2022-10-06T01:57:16.987Z,487.18
2022-10-06T01:57:26.989Z,486.71
2022-10-06T01:57:36.990Z,486.12
2022-10-06T01:57:46.991Z,486.16
2022-10-06T01:57:56.989Z,486.35
2022-10-06T01:58:06.990Z,486.37
2022-10-06T01:58:16.993Z,486.45
2022-10-06T01:58:27.396Z,486.93
2022-10-06T01:58:36.993Z,486.45
2022-10-06T01:58:46.992Z,486.75
2022-10-06T01:58:56.994Z,486.43
2022-10-06T01:59:06.995Z,486.82
2022-10-06T01:59:16.997Z,486.23
2022-10-06T01:59:26.998Z,485.71
2022-10-06T01:59:36.997Z,485.66
2022-10-06T01:59:48.301Z,486.63
2022-10-06T01:59:56.999Z,486.08
2022-10-06T02:00:06.998Z,485.91
2022-10-06T02:00:17.001Z,485.86
2022-10-06T02:00:27.000Z,485.94
2022-10-06T02:00:37.002Z,486.09
2022-10-06T02:00:47.001Z,486.60
2022-10-06T02:00:57.009Z,486.33
2022-10-06T02:01:07.005Z,486.06
2022-10-06T02:01:17.016Z,486.33
2022-10-06T02:01:27.033Z,486.22
2022-10-06T02:01:37.106Z,486.33
2022-10-06T02:01:47.053Z,485.84
2022-10-06T02:01:57.069Z,485.69
2022-10-06T02:02:07.020Z,486.11
2022-10-06T02:02:17.008Z,486.17
2022-10-06T02:02:27.076Z,486.20
2022-10-06T02:02:37.010Z,486.00
2022-10-06T02:02:47.013Z,486.21
2022-10-06T02:02:57.010Z,486.98
2022-10-06T02:03:07.012Z,486.21
2022-10-06T02:03:17.014Z,485.29
2022-10-06T02:03:27.014Z,485.00
2022-10-06T02:03:37.017Z,486.08
2022-10-06T02:03:47.016Z,486.17
2022-10-06T02:03:57.094Z,486.25
2022-10-06T02:04:07.084Z,485.91
2022-10-06T02:04:17.049Z,485.68
2022-10-06T02:04:27.077Z,485.63
2022-10-06T02:04:37.021Z,485.93
2022-10-06T02:04:47.023Z,486.26